Time;durP1;ratioP1;P1;durP2;ratioP2;P2;SDS_P1;SDS_P2;PMS_P1;PMS_P2;Temp;Humidity;BMP_temperature;BMP_pressure;BME280_temperature;BME280_humidity;BME280_pressure;Samples;Min_cycle;Max_cycle;Signal;HPM_P1;HPM_P2
2022/04/02 00:00:20;;;;;;;10.77;9.70;;;;;;;-1.42;100.00;94571.75;4953499;29;24497;-70
2022/04/02 00:02:46;;;;;;;10.33;9.40;;;;;;;-1.53;100.00;94564.50;4953974;29;24829;-70
2022/04/02 00:05:14;;;;;;;9.85;9.05;;;;;;;-1.37;100.00;94569.03;4953870;29;24824;-70
2022/04/02 00:07:40;;;;;;;10.55;9.45;;;;;;;-1.25;100.00;94564.38;4953688;28;24971;-70
2022/04/02 00:10:08;;;;;;;9.70;8.90;;;;;;;-1.31;100.00;94558.66;4953383;29;24425;-70
2022/04/02 00:12:34;;;;;;;9.52;8.63;;;;;;;-1.24;100.00;94560.94;4953515;29;24421;-70
2022/04/02 00:15:01;;;;;;;8.70;8.00;;;;;;;-1.13;100.00;94562.25;4953783;29;24430;-70
2022/04/02 00:17:27;;;;;;;9.40;8.50;;;;;;;-1.30;100.00;94560.31;4953382;28;25023;-70
2022/04/02 00:19:54;;;;;;;8.95;8.15;;;;;;;-1.24;100.00;94560.94;4953527;29;24433;-70
2022/04/02 00:22:21;;;;;;;9.40;8.50;;;;;;;-1.41;100.00;94564.97;4953534;29;24963;-70
2022/04/02 00:24:48;;;;;;;9.13;8.32;;;;;;;-1.21;100.00;94567.63;4953380;29;24421;-71
2022/04/02 00:27:14;;;;;;;8.90;8.18;;;;;;;-1.28;100.00;94563.66;4953123;28;24974;-71
2022/04/02 00:29:41;;;;;;;9.10;8.27;;;;;;;-1.47;100.00;94573.63;4953326;29;24421;-71
2022/04/02 00:32:08;;;;;;;9.35;8.45;;;;;;;-1.47;100.00;94566.84;4953615;29;24433;-71
2022/04/02 00:34:35;;;;;;;8.45;7.75;;;;;;;-1.40;100.00;94562.38;4953142;29;24469;-70
2022/04/02 00:37:01;;;;;;;8.35;7.65;;;;;;;-1.33;100.00;94568.91;4953089;28;24860;-70
2022/04/02 00:39:30;;;;;;;8.50;7.40;;;;;;;-1.24;100.00;94568.56;4953057;29;24425;-70
2022/04/02 00:41:56;;;;;;;8.00;7.30;;;;;;;-1.18;100.00;94569.22;4952522;28;24430;-71
2022/04/02 00:44:25;;;;;;;10.77;7.68;;;;;;;-1.26;100.00;94561.88;4953134;29;24425;-71
2022/04/02 00:46:51;;;;;;;7.00;6.40;;;;;;;-1.20;100.00;94566.72;4952911;28;24430;-71
2022/04/02 00:49:18;;;;;;;7.25;6.65;;;;;;;-1.14;100.00;94561.44;4952985;29;24832;-71
2022/04/02 00:51:46;;;;;;;7.33;6.73;;;;;;;-1.25;100.00;94559.28;4953025;29;24418;-70
2022/04/02 00:54:14;;;;;;;7.25;6.60;;;;;;;-1.23;100.00;94557.50;4952817;29;24462;-71
2022/04/02 00:56:43;;;;;;;6.53;6.00;;;;;;;-1.28;100.00;94561.09;4952710;28;24513;-71
2022/04/02 00:59:10;;;;;;;7.53;6.72;;;;;;;-1.27;100.00;94560.22;4952858;29;24421;-71
2022/04/02 01:01:37;;;;;;;8.00;5.82;;;;;;;-1.30;100.00;94567.94;4952752;29;24422;-71
2022/04/02 01:04:06;;;;;;;6.43;5.83;;;;;;;-1.22;100.00;94560.91;4952872;29;24500;-71
2022/04/02 01:06:35;;;;;;;6.53;5.93;;;;;;;-1.29;100.00;94564.53;4952771;28;24655;-71
2022/04/02 01:09:02;;;;;;;6.45;5.85;;;;;;;-1.18;100.00;94561.63;4953012;29;24470;-71
2022/04/02 01:11:36;;;;;;;6.97;6.28;;;;;;;-0.97;100.00;94563.34;4952657;29;24418;-70
2022/04/02 01:14:04;;;;;;;6.88;6.28;;;;;;;-1.11;100.00;94563.88;4952782;29;24414;-70
2022/04/02 01:16:32;;;;;;;6.00;5.50;;;;;;;-1.08;100.00;94573.06;4952033;28;25054;-70
2022/04/02 01:18:58;;;;;;;6.25;5.75;;;;;;;-1.14;100.00;94571.59;4952477;29;24449;-71
2022/04/02 01:21:27;;;;;;;6.03;5.53;;;;;;;-1.15;100.00;94572.50;4952303;29;24481;-71
2022/04/02 01:23:55;;;;;;;5.95;5.35;;;;;;;-0.98;100.00;94574.41;4952604;29;24448;-70
2022/04/02 01:26:23;;;;;;;5.95;5.45;;;;;;;-1.00;100.00;94576.19;4951457;28;24432;-70
2022/04/02 01:28:53;;;;;;;5.70;5.30;;;;;;;-0.97;100.00;94574.31;4952690;29;24517;-70
2022/04/02 01:31:21;;;;;;;5.85;5.35;;;;;;;-0.86;100.00;94575.66;4952318;29;24445;-71
2022/04/02 01:33:49;;;;;;;7.05;5.90;;;;;;;-1.11;100.00;94568.94;4952413;29;24411;-71
2022/04/02 01:36:16;;;;;;;6.13;5.60;;;;;;;-0.98;100.00;94580.31;4952476;28;24792;-70
2022/04/02 01:38:42;;;;;;;6.38;5.85;;;;;;;-1.09;100.00;94574.78;4951907;29;24983;-70
2022/04/02 01:41:10;;;;;;;6.43;5.77;;;;;;;-1.06;100.00;94577.22;4952107;29;25031;-70
2022/04/02 01:43:37;;;;;;;6.63;6.03;;;;;;;-0.95;100.00;94571.75;4952325;29;24430;-70
2022/04/02 01:46:05;;;;;;;6.80;6.22;;;;;;;-0.80;100.00;94577.97;4952168;28;24441;-71
2022/04/02 01:48:32;;;;;;;6.47;5.88;;;;;;;-0.97;100.00;94581.94;4952448;29;24414;-71
2022/04/02 01:50:59;;;;;;;6.57;6.07;;;;;;;-0.78;100.00;94577.03;4952381;29;24441;-71
2022/04/02 01:53:27;;;;;;;6.10;5.65;;;;;;;-0.61;100.00;94576.38;4952329;28;24433;-71
2022/04/02 01:55:54;;;;;;;7.15;6.55;;;;;;;-0.58;100.00;94578.81;4955665;28;24430;-70
2022/04/02 01:58:22;;;;;;;7.10;6.40;;;;;;;-0.83;100.00;94575.53;4955928;29;24453;-70
2022/04/02 02:00:48;;;;;;;7.55;6.40;;;;;;;-0.85;100.00;94573.06;4955748;29;24422;-70
2022/04/02 02:03:16;;;;;;;8.50;6.70;;;;;;;-0.82;100.00;94584.81;4955948;29;24842;-70
2022/04/02 02:05:42;;;;;;;7.70;6.90;;;;;;;-0.98;100.00;94579.47;4955825;28;24509;-70
2022/04/02 02:08:09;;;;;;;7.63;6.75;;;;;;;-0.93;100.00;94569.97;4955879;29;24425;-70
2022/04/02 02:10:36;;;;;;;8.23;7.43;;;;;;;-0.87;100.00;94579.09;4955483;29;24955;-70
2022/04/02 02:13:02;;;;;;;8.20;7.47;;;;;;;-0.80;100.00;94581.34;4955795;29;24422;-70
2022/04/02 02:15:30;;;;;;;8.02;7.22;;;;;;;-0.75;100.00;94587.06;4954927;29;25034;-70
2022/04/02 02:17:57;;;;;;;7.90;6.88;;;;;;;-0.80;100.00;94583.06;4955730;28;24462;-71
2022/04/02 02:20:23;;;;;;;8.27;7.43;;;;;;;-0.86;100.00;94591.72;4955446;29;24434;-71
2022/04/02 02:22:50;;;;;;;9.35;7.82;;;;;;;-0.97;100.00;94589.56;4955348;29;24998;-71
2022/04/02 02:25:18;;;;;;;7.63;6.93;;;;;;;-1.11;100.00;94598.59;4955571;29;24517;-71
2022/04/02 02:27:47;;;;;;;10.50;8.25;;;;;;;-0.95;100.00;94601.41;4955395;28;24418;-71
2022/04/02 02:30:15;;;;;;;8.25;7.40;;;;;;;-1.01;100.00;94602.47;4955081;29;24426;-71
2022/04/02 02:32:43;;;;;;;9.02;8.13;;;;;;;-1.08;100.00;94606.94;4955555;29;24425;-71
2022/04/02 02:38:03;;;;;;;8.65;7.50;;;;;;;-1.08;100.00;94612.00;4951939;29;24537;-71
2022/04/02 02:40:30;;;;;;;9.75;8.30;;;;;;;-0.97;100.00;94622.63;4935825;29;24953;-71
2022/04/02 02:42:56;;;;;;;8.93;8.03;;;;;;;-0.95;100.00;94611.59;4936486;29;24426;-71
2022/04/02 02:45:23;;;;;;;8.15;7.35;;;;;;;-1.11;100.00;94619.78;4945231;29;24508;-72
2022/04/02 02:47:50;;;;;;;9.07;8.18;;;;;;;-1.15;100.00;94615.69;4954865;28;25019;-71
2022/04/02 02:50:17;;;;;;;9.73;8.02;;;;;;;-0.90;100.00;94613.06;4955027;29;24824;-71
2022/04/02 02:52:44;;;;;;;10.02;8.55;;;;;;;-0.98;100.00;94615.06;4955331;29;24422;-71
2022/04/02 02:55:10;;;;;;;9.70;7.88;;;;;;;-1.03;100.00;94619.50;4954866;29;24461;-71
2022/04/02 02:57:38;;;;;;;9.32;8.38;;;;;;;-0.99;100.00;94621.03;4955109;28;24513;-71
2022/04/02 03:00:07;;;;;;;9.90;8.30;;;;;;;-1.18;100.00;94618.31;4954927;29;24414;-71
2022/04/02 03:02:34;;;;;;;8.75;7.93;;;;;;;-1.04;100.00;94612.72;4955021;29;24851;-71
2022/04/02 03:05:02;;;;;;;10.02;7.95;;;;;;;-0.95;100.00;94616.66;4954288;28;24437;-71
2022/04/02 03:07:28;;;;;;;8.68;7.85;;;;;;;-1.07;100.00;94615.41;4954710;28;24465;-71
2022/04/02 03:09:55;;;;;;;9.45;8.10;;;;;;;-1.23;100.00;94615.09;4954463;29;25026;-71
2022/04/02 03:12:21;;;;;;;9.68;8.02;;;;;;;-1.18;100.00;94614.97;4954890;29;24434;-71
2022/04/02 03:14:48;;;;;;;10.52;7.75;;;;;;;-1.16;100.00;94614.00;4954749;29;25034;-71
2022/04/02 03:17:14;;;;;;;12.35;8.38;;;;;;;-1.15;100.00;94625.00;4954595;28;24458;-71
2022/04/02 03:19:41;;;;;;;10.32;8.05;;;;;;;-1.23;100.00;94628.63;4954675;29;24437;-71
2022/04/02 03:22:08;;;;;;;9.63;8.00;;;;;;;-1.19;100.00;94621.72;4954519;29;25034;-71
2022/04/02 03:24:35;;;;;;;10.82;7.78;;;;;;;-1.12;100.00;94629.97;4954660;29;24434;-71
2022/04/02 03:27:01;;;;;;;10.35;7.53;;;;;;;-1.17;100.00;94627.59;4954409;28;24442;-71
2022/04/02 03:29:28;;;;;;;9.50;7.07;;;;;;;-1.08;100.00;94624.72;4954565;29;24443;-71
2022/04/02 03:31:55;;;;;;;12.27;8.23;;;;;;;-1.24;100.00;94638.84;4954414;29;24457;-71
2022/04/02 03:34:21;;;;;;;11.10;7.65;;;;;;;-1.26;100.00;94638.06;4954398;29;24414;-71
2022/04/02 03:36:47;;;;;;;11.02;7.43;;;;;;;-1.18;100.00;94638.66;4954288;28;24430;-71
2022/04/02 03:39:15;;;;;;;9.13;7.18;;;;;;;-1.26;100.00;94636.38;4954627;29;24418;-71
2022/04/02 03:41:42;;;;;;;12.32;7.75;;;;;;;-1.23;100.00;94635.44;4954372;29;24476;-71
2022/04/02 03:44:08;;;;;;;13.68;7.22;;;;;;;-1.25;100.00;94640.56;4954157;29;24434;-71
2022/04/02 03:49:19;;;;;;;12.85;7.55;;;;;;;-1.35;100.00;94639.22;4954331;29;24978;-71
2022/04/02 03:51:45;;;;;;;10.10;8.07;;;;;;;-1.24;100.00;94642.22;4954289;29;24547;-71
2022/04/02 03:54:12;;;;;;;12.13;7.95;;;;;;;-1.15;100.00;94642.78;4954004;29;24840;-71
2022/04/02 03:56:39;;;;;;;12.00;8.20;;;;;;;-1.10;100.00;94640.91;4954039;28;24438;-71
2022/04/02 03:59:07;;;;;;;10.80;7.97;;;;;;;-1.13;100.00;94643.56;4953829;29;24534;-72
2022/04/02 04:01:34;;;;;;;11.15;7.72;;;;;;;-1.28;100.00;94650.84;4953830;29;24424;-71
2022/04/02 04:04:00;;;;;;;12.40;8.07;;;;;;;-1.28;100.00;94655.91;4954246;29;24429;-71
2022/04/02 04:06:27;;;;;;;10.77;7.77;;;;;;;-1.18;100.00;94651.34;4953873;28;24476;-71
2022/04/02 04:08:53;;;;;;;10.30;7.80;;;;;;;-1.31;100.00;94653.47;4953882;29;24444;-71
2022/04/02 04:11:20;;;;;;;12.82;7.97;;;;;;;-1.29;100.00;94659.34;4953566;29;24974;-71
2022/04/02 04:13:48;;;;;;;9.27;7.20;;;;;;;-1.28;100.00;94663.53;4953742;29;24493;-71
2022/04/02 04:16:15;;;;;;;8.65;7.68;;;;;;;-1.16;100.00;94649.56;4952970;28;24535;-71
2022/04/02 04:18:42;;;;;;;20.40;7.85;;;;;;;-1.28;100.00;94665.25;4953676;29;24442;-72
2022/04/02 04:21:08;;;;;;;11.48;8.02;;;;;;;-1.36;100.00;94659.63;4953542;29;24429;-71
2022/04/02 04:23:34;;;;;;;9.10;7.83;;;;;;;-1.22;100.00;94665.06;4953464;29;24443;-71
2022/04/02 04:26:01;;;;;;;10.55;7.00;;;;;;;-1.25;100.00;94672.78;4953259;28;24874;-71
2022/04/02 04:28:28;;;;;;;8.15;7.15;;;;;;;-1.13;100.00;94663.88;4954088;29;24477;-72
2022/04/02 04:30:56;;;;;;;9.93;7.47;;;;;;;-1.37;100.00;94665.56;4953956;29;24489;-71
2022/04/02 04:33:22;;;;;;;11.70;7.40;;;;;;;-1.35;100.00;94669.72;4954499;29;24481;-71
2022/04/02 04:35:48;;;;;;;7.60;6.80;;;;;;;-1.52;100.00;94672.84;4953247;28;24425;-71
2022/04/02 04:38:15;;;;;;;7.82;6.85;;;;;;;-1.32;100.00;94674.69;4953124;29;24450;-71
2022/04/02 04:40:41;;;;;;;7.13;6.43;;;;;;;-1.49;100.00;94676.97;4953142;29;24531;-71
2022/04/02 04:43:08;;;;;;;7.25;6.55;;;;;;;-1.46;100.00;94672.59;4953248;29;24440;-71
2022/04/02 04:45:34;;;;;;;6.78;6.07;;;;;;;-1.33;100.00;94682.38;4952947;29;24979;-71
2022/04/02 04:48:02;;;;;;;8.85;6.50;;;;;;;-1.36;100.00;94690.91;4953099;28;24439;-71
2022/04/02 04:50:29;;;;;;;8.20;7.32;;;;;;;-1.27;100.00;94685.50;4952956;29;24481;-71
2022/04/02 04:52:55;;;;;;;7.28;6.38;;;;;;;-1.31;100.00;94690.75;4952993;29;24437;-71
2022/04/02 04:55:22;;;;;;;7.03;6.43;;;;;;;-1.43;100.00;94691.19;4953153;29;24421;-71
2022/04/02 04:57:49;;;;;;;7.67;6.87;;;;;;;-1.43;100.00;94693.72;4952668;28;24553;-71
2022/04/02 05:00:16;;;;;;;8.13;6.70;;;;;;;-1.48;100.00;94687.09;4952529;29;24418;-71
2022/04/02 05:02:44;;;;;;;7.40;6.68;;;;;;;-1.46;100.00;94698.00;4953146;29;24788;-71
2022/04/02 05:05:12;;;;;;;7.43;6.72;;;;;;;-1.54;100.00;94706.75;4952899;29;24871;-71
2022/04/02 05:07:39;;;;;;;8.35;6.80;;;;;;;-1.49;100.00;94695.56;4952266;28;24465;-71
2022/04/02 05:10:07;;;;;;;6.35;5.80;;;;;;;-1.53;100.00;94709.25;4951476;29;24535;-71
2022/04/02 05:12:34;;;;;;;6.50;5.80;;;;;;;-1.64;100.00;94713.84;4952215;29;24422;-71
2022/04/02 05:15:01;;;;;;;6.65;6.00;;;;;;;-1.53;100.00;94714.31;4952036;29;24537;-71
2022/04/02 05:17:27;;;;;;;6.45;5.85;;;;;;;-1.59;100.00;94717.06;4952565;28;24430;-71
2022/04/02 05:19:54;;;;;;;6.15;5.47;;;;;;;-1.53;100.00;94721.94;4952270;29;24979;-71
2022/04/02 05:22:22;;;;;;;7.20;5.73;;;;;;;-1.56;100.00;94716.97;4952516;29;24478;-71
2022/04/02 05:24:48;;;;;;;5.32;4.85;;;;;;;-1.36;100.00;94725.66;4952641;29;24418;-71
2022/04/02 05:27:15;;;;;;;6.47;5.15;;;;;;;-1.36;100.00;94730.72;4952293;28;24426;-71
2022/04/02 05:29:41;;;;;;;6.70;4.93;;;;;;;-1.27;100.00;94716.00;4952234;28;24477;-71
2022/04/02 05:32:08;;;;;;;5.87;5.27;;;;;;;-1.42;100.00;94729.22;4952453;29;24955;-71
2022/04/02 05:34:35;;;;;;;6.03;5.40;;;;;;;-1.40;100.00;94727.47;4952326;29;24995;-71
2022/04/02 05:37:01;;;;;;;5.35;4.85;;;;;;;-1.34;100.00;94728.94;4952338;28;24433;-71
2022/04/02 05:39:29;;;;;;;6.10;5.00;;;;;;;-1.49;100.00;94735.38;4952502;29;24449;-71
2022/04/02 05:41:57;;;;;;;5.45;4.95;;;;;;;-1.43;100.00;94729.28;4952117;29;24417;-71
2022/04/02 05:44:23;;;;;;;6.63;5.38;;;;;;;-1.51;100.00;94742.22;4952394;29;24995;-71
2022/04/02 05:46:50;;;;;;;7.50;5.22;;;;;;;-1.37;100.00;94745.16;4952684;28;24473;-71
2022/04/02 05:49:17;;;;;;;5.80;5.20;;;;;;;-1.44;100.00;94748.75;4952494;29;24418;-71
2022/04/02 05:51:43;;;;;;;6.10;5.28;;;;;;;-1.56;100.00;94749.13;4952002;29;25019;-71
2022/04/02 05:54:13;;;;;;;6.43;5.13;;;;;;;-1.58;100.00;94750.91;4952782;29;24429;-71
2022/04/02 05:56:47;;;;;;;5.25;4.75;;;;;;;-1.39;100.00;94761.31;4952476;28;24422;-71
2022/04/02 05:59:22;;;;;;;5.32;4.82;;;;;;;-1.32;100.00;94767.84;4952072;29;24446;-71
2022/04/02 06:01:52;;;;;;;5.10;4.57;;;;;;;-1.29;100.00;94760.94;4952271;29;24485;-70
2022/04/02 06:04:25;;;;;;;4.28;3.88;;;;;;;-1.12;100.00;94769.72;4952287;29;24424;-72
2022/04/02 06:06:55;;;;;;;4.43;4.03;;;;;;;-1.20;100.00;94766.59;4951980;28;25028;-71
2022/04/02 06:09:25;;;;;;;4.38;3.95;;;;;;;-1.19;100.00;94773.34;4951968;29;24414;-71
2022/04/02 06:12:01;;;;;;;5.10;4.18;;;;;;;-1.20;100.00;94775.06;4951694;29;24429;-72
2022/04/02 06:14:34;;;;;;;4.28;3.70;;;;;;;-1.19;100.00;94774.16;4952062;29;24422;-71
2022/04/02 06:17:14;;;;;;;4.10;3.70;;;;;;;-1.19;100.00;94784.31;4951770;28;24433;-71
2022/04/02 06:19:44;;;;;;;4.30;3.88;;;;;;;-1.14;100.00;94776.56;4951878;29;24446;-71
2022/04/02 06:22:14;;;;;;;5.47;4.03;;;;;;;-1.29;100.00;94780.44;4951887;29;24430;-70
2022/04/02 06:24:50;;;;;;;4.63;4.00;;;;;;;-1.26;100.00;94782.88;4951952;29;24424;-71
2022/04/02 06:27:21;;;;;;;5.07;3.95;;;;;;;-1.22;100.00;94790.34;4951722;28;24509;-71
2022/04/02 06:29:56;;;;;;;4.53;4.13;;;;;;;-1.13;100.00;94783.31;4951219;29;24422;-71
2022/04/02 06:32:26;;;;;;;4.55;4.03;;;;;;;-1.40;100.00;94796.03;4951793;29;24426;-71
2022/04/02 06:34:56;;;;;;;4.43;3.92;;;;;;;-1.33;100.00;94794.97;4951715;29;24467;-70
2022/04/02 06:37:29;;;;;;;4.43;3.70;;;;;;;-1.18;100.00;94793.63;4951355;28;24438;-71
2022/04/02 06:40:01;;;;;;;4.60;3.75;;;;;;;-1.29;100.00;94795.69;4950764;28;24446;-71
2022/04/02 06:42:33;;;;;;;3.60;3.30;;;;;;;-1.39;100.00;94805.31;4935661;29;24426;-72
2022/04/02 06:45:03;;;;;;;4.22;3.83;;;;;;;-1.17;100.00;94791.91;4935875;29;24427;-72
2022/04/02 06:47:37;;;;;;;4.25;3.75;;;;;;;-1.00;100.00;94803.19;4936075;29;24511;-72
2022/04/02 06:50:08;;;;;;;3.90;3.60;;;;;;;-1.15;100.00;94806.25;4936339;29;24510;-72
2022/04/02 06:52:40;;;;;;;3.80;3.37;;;;;;;-1.20;100.00;94800.47;4935635;29;24433;-72
2022/04/02 06:55:11;;;;;;;4.50;3.92;;;;;;;-1.19;100.00;94809.72;4936106;29;24423;-72
2022/04/02 06:57:53;;;;;;;5.25;3.72;;;;;;;-1.33;100.00;94807.66;4935956;29;24427;-73
2022/04/02 07:00:31;;;;;;;4.22;3.83;;;;;;;-1.26;100.00;94819.28;4935719;29;24490;-73
2022/04/02 07:03:02;;;;;;;5.88;4.15;;;;;;;-1.28;100.00;94822.75;4935835;29;24455;-73
2022/04/02 07:05:32;;;;;;;4.28;3.88;;;;;;;-1.15;100.00;94821.47;4935539;29;24423;-73
2022/04/02 07:08:05;;;;;;;4.35;3.95;;;;;;;-1.18;100.00;94834.28;4935791;29;24423;-72
2022/04/02 07:10:37;;;;;;;6.13;3.97;;;;;;;-1.14;100.00;94829.94;4935266;29;24422;-72
2022/04/02 07:13:12;;;;;;;6.47;4.10;;;;;;;-1.30;100.00;94838.06;4935501;29;24429;-72
2022/04/02 07:15:42;;;;;;;5.00;4.25;;;;;;;-1.36;100.00;94852.66;4935227;29;24430;-72
2022/04/02 07:18:13;;;;;;;6.05;4.68;;;;;;;-1.36;100.00;94850.94;4935202;29;24427;-72
2022/04/02 07:20:43;;;;;;;5.40;4.22;;;;;;;-1.17;100.00;94858.81;4935218;29;24807;-72
2022/04/02 07:23:18;;;;;;;4.90;4.47;;;;;;;-1.15;100.00;94858.75;4935287;29;24418;-72
2022/04/02 07:25:49;;;;;;;4.97;4.22;;;;;;;-1.19;100.00;94862.25;4935077;29;24418;-72
2022/04/02 07:28:23;;;;;;;6.03;4.68;;;;;;;-1.17;100.00;94866.41;4935286;29;24724;-72
2022/04/02 07:30:56;;;;;;;5.15;4.65;;;;;;;-1.23;100.00;94866.59;4935161;29;24426;-72
2022/04/02 07:33:28;;;;;;;5.30;4.80;;;;;;;-1.17;100.00;94875.75;4935319;29;24410;-72
2022/04/02 07:36:04;;;;;;;4.80;4.40;;;;;;;-1.01;100.00;94889.63;4935004;29;24470;-72
2022/04/02 07:38:46;;;;;;;5.95;4.93;;;;;;;-1.14;100.00;94886.66;4935453;29;24530;-72
2022/04/02 07:41:27;;;;;;;6.55;5.53;;;;;;;-1.17;100.00;94896.09;4935145;29;24793;-72
2022/04/02 07:44:05;;;;;;;5.38;4.85;;;;;;;-1.26;100.00;94897.19;4935036;29;24790;-73
2022/04/02 07:46:40;;;;;;;10.68;5.97;;;;;;;-1.17;100.00;94898.63;4934807;29;24785;-73
2022/04/02 07:49:14;;;;;;;5.20;4.70;;;;;;;-1.00;100.00;94899.75;4934894;29;24792;-72
2022/04/02 07:51:49;;;;;;;5.65;5.10;;;;;;;-1.00;100.00;94906.56;4934492;29;24813;-72
2022/04/02 07:54:23;;;;;;;5.85;5.22;;;;;;;-1.14;100.00;94904.44;4934773;29;24995;-72
2022/04/02 07:56:56;;;;;;;6.57;5.00;;;;;;;-0.90;100.00;94910.44;4934631;29;24971;-72
2022/04/02 07:59:37;;;;;;;5.70;4.55;;;;;;;-0.92;100.00;94914.78;4934416;29;25010;-72
2022/04/02 08:02:36;;;;;;;4.38;3.97;;;;;;;-0.92;100.00;94914.78;4934624;29;24984;-72
2022/04/02 08:05:03;;;;;;;5.90;4.63;;;;;;;-0.91;100.00;94915.59;4934486;29;24514;-72
2022/04/02 08:07:39;;;;;;;4.68;4.15;;;;;;;-0.91;100.00;94924.03;4934222;29;24434;-72
2022/04/02 08:10:14;;;;;;;4.80;4.40;;;;;;;-1.09;100.00;94924.63;4934508;29;24941;-72
2022/04/02 08:12:47;;;;;;;4.77;4.30;;;;;;;-1.02;100.00;94932.00;4934386;29;25060;-72
2022/04/02 08:15:26;;;;;;;4.70;3.92;;;;;;;-0.92;100.00;94932.56;4934277;29;24425;-72
2022/04/02 08:17:54;;;;;;;4.50;3.90;;;;;;;-0.97;100.00;94934.41;4934907;29;24979;-73
2022/04/02 08:20:22;;;;;;;4.68;4.28;;;;;;;-0.87;100.00;94935.78;4934271;29;25388;-72
2022/04/02 08:22:49;;;;;;;5.15;4.65;;;;;;;-0.81;100.00;94944.94;4934754;29;24423;-73
2022/04/02 08:25:16;;;;;;;5.82;4.55;;;;;;;-0.88;100.00;94944.28;4934700;29;24434;-73
2022/04/02 08:27:57;;;;;;;5.57;4.93;;;;;;;-0.79;100.00;94955.88;4934646;29;25003;-72
2022/04/02 08:30:31;;;;;;;5.30;4.80;;;;;;;-0.83;100.00;94954.31;4934376;29;24415;-72
2022/04/02 08:33:18;;;;;;;4.70;4.30;;;;;;;-0.89;100.00;94962.13;4934389;29;24419;-72
2022/04/02 08:35:53;;;;;;;7.18;5.78;;;;;;;-0.98;100.00;94953.91;4934197;29;24422;-73
2022/04/02 08:38:28;;;;;;;4.93;4.53;;;;;;;-1.06;100.00;94965.19;4934475;29;24546;-72
2022/04/02 08:41:27;;;;;;;8.13;4.53;;;;;;;-1.06;100.00;94967.72;4934025;29;24469;-73
2022/04/02 08:44:39;;;;;;;6.82;4.80;;;;;;;-1.05;100.00;94977.00;4934308;29;24417;-72
2022/04/02 08:47:26;;;;;;;6.63;4.60;;;;;;;-1.09;100.00;94978.00;4933859;29;24418;-72
2022/04/02 08:50:06;;;;;;;7.07;5.88;;;;;;;-1.18;100.00;94981.66;4934191;29;24474;-72
2022/04/02 08:52:51;;;;;;;7.30;6.25;;;;;;;-0.97;100.00;94983.50;4934182;29;24797;-72
2022/04/02 08:55:18;;;;;;;7.30;6.60;;;;;;;-0.89;100.00;94990.94;4934211;29;24482;-72
2022/04/02 08:58:14;;;;;;;8.38;6.80;;;;;;;-0.89;100.00;94992.63;4933900;29;24429;-72
2022/04/02 09:00:43;;;;;;;7.07;6.00;;;;;;;-1.07;100.00;94999.94;4933271;29;24461;-73
2022/04/02 09:03:43;;;;;;;7.13;6.40;;;;;;;-1.10;100.00;94994.13;4933484;29;24423;-73
2022/04/02 09:06:45;;;;;;;11.57;6.60;;;;;;;-0.96;100.00;95004.72;4933992;29;24432;-73
2022/04/02 09:09:23;;;;;;;14.88;6.25;;;;;;;-0.99;100.00;95014.97;4931279;29;25016;-73
2022/04/02 09:12:18;;;;;;;8.50;6.38;;;;;;;-0.99;100.00;95009.88;4933393;29;24434;-72
2022/04/02 09:15:00;;;;;;;9.67;6.47;;;;;;;-1.20;100.00;95018.94;4933958;29;24430;-73
2022/04/02 09:17:36;;;;;;;10.35;6.50;;;;;;;-1.11;100.00;95022.94;4933451;29;24437;-72
2022/04/02 09:20:31;;;;;;;8.73;7.63;;;;;;;-1.01;100.00;95015.00;4933504;29;24541;-72
2022/04/02 09:23:10;;;;;;;7.60;6.90;;;;;;;-1.04;100.00;95026.94;4933373;29;24952;-73
2022/04/02 09:26:06;;;;;;;10.05;7.50;;;;;;;-1.18;100.00;95026.56;4933582;29;24804;-73
2022/04/02 09:29:09;;;;;;;9.07;7.47;;;;;;;-0.95;100.00;95033.50;4933428;29;24481;-73
2022/04/02 09:32:23;;;;;;;7.78;7.05;;;;;;;-0.89;100.00;95029.06;4933400;29;24478;-72
2022/04/02 09:35:30;;;;;;;7.63;6.70;;;;;;;-0.92;100.00;95021.53;4933416;29;24483;-73
2022/04/02 09:38:48;;;;;;;9.05;6.70;;;;;;;-0.74;100.00;95031.13;4933584;29;24486;-73
2022/04/02 09:41:25;;;;;;;11.82;7.45;;;;;;;-0.79;100.00;95044.84;4932989;29;24483;-72
2022/04/02 09:44:00;;;;;;;17.92;7.55;;;;;;;-0.86;100.00;95048.47;4933354;29;24515;-72
2022/04/02 09:46:55;;;;;;;7.55;6.53;;;;;;;-0.78;100.00;95044.81;4933203;29;24430;-72
2022/04/02 09:49:24;;;;;;;8.13;6.80;;;;;;;-0.87;100.00;95047.63;4933225;29;24817;-73
2022/04/02 09:51:58;;;;;;;8.32;7.35;;;;;;;-1.01;100.00;95045.50;4932836;29;24506;-73
2022/04/02 09:54:31;;;;;;;8.10;7.00;;;;;;;-0.81;100.00;95050.00;4933295;29;24430;-73
2022/04/02 09:57:08;;;;;;;7.28;6.53;;;;;;;-0.75;100.00;95057.41;4933392;29;24430;-73
2022/04/02 09:59:43;;;;;;;9.52;7.03;;;;;;;-1.01;100.00;95050.56;4933278;29;24466;-73
2022/04/02 10:02:21;;;;;;;8.70;7.50;;;;;;;-1.08;100.00;95060.97;4933057;29;24423;-72
2022/04/02 10:04:54;;;;;;;8.23;7.30;;;;;;;-0.95;100.00;95059.75;4933162;29;24427;-72
2022/04/02 10:07:30;;;;;;;12.90;7.28;;;;;;;-1.01;100.00;95072.63;4932831;29;24433;-72
2022/04/02 10:09:59;;;;;;;8.07;7.20;;;;;;;-0.86;100.00;95064.53;4932918;29;24833;-72
2022/04/02 10:12:29;;;;;;;10.60;6.82;;;;;;;-1.10;100.00;95066.09;4932872;29;24427;-72
2022/04/02 10:14:58;;;;;;;8.32;6.72;;;;;;;-0.99;100.00;95068.34;4933394;29;24769;-73
2022/04/02 10:17:28;;;;;;;8.75;7.15;;;;;;;-1.12;100.00;95064.47;4936367;29;24991;-72
2022/04/02 10:19:56;;;;;;;7.50;6.75;;;;;;;-1.04;100.00;95068.47;4936494;29;24497;-72
2022/04/02 10:22:36;;;;;;;7.95;6.72;;;;;;;-1.13;100.00;95081.44;4936509;29;24967;-72
2022/04/02 10:25:08;;;;;;;9.52;6.97;;;;;;;-1.18;100.00;95075.66;4936333;29;24533;-73
2022/04/02 10:27:37;;;;;;;8.30;6.45;;;;;;;-1.02;100.00;95078.59;4936573;29;24518;-73
2022/04/02 10:30:09;;;;;;;7.38;6.68;;;;;;;-0.98;100.00;95077.63;4936267;29;24429;-72
2022/04/02 10:32:50;;;;;;;9.70;6.97;;;;;;;-1.06;100.00;95077.00;4936449;29;24478;-73
2022/04/02 10:35:17;;;;;;;9.70;7.20;;;;;;;-0.93;100.00;95091.00;4936204;29;24427;-72
2022/04/02 10:37:53;;;;;;;7.55;6.85;;;;;;;-0.96;100.00;95080.97;4935945;29;24794;-72
2022/04/02 10:40:24;;;;;;;9.07;6.18;;;;;;;-1.16;100.00;95089.13;4935825;29;24459;-72
2022/04/02 10:42:55;;;;;;;7.03;6.32;;;;;;;-1.14;100.00;95082.31;4936478;29;24469;-71
2022/04/02 10:45:22;;;;;;;7.40;6.63;;;;;;;-1.01;100.00;95090.41;4935959;29;25053;-72
2022/04/02 10:47:50;;;;;;;9.25;6.68;;;;;;;-1.04;100.00;95096.44;4935951;29;24427;-72
2022/04/02 10:50:19;;;;;;;6.43;5.82;;;;;;;-1.10;100.00;95100.84;4935916;29;24510;-72
2022/04/02 10:52:48;;;;;;;10.25;6.40;;;;;;;-1.10;100.00;95100.84;4935844;29;24945;-72
2022/04/02 10:55:17;;;;;;;7.10;6.20;;;;;;;-1.25;100.00;95092.78;4935894;29;24427;-72
2022/04/02 10:57:44;;;;;;;6.70;6.05;;;;;;;-1.12;100.00;95102.59;4936006;29;24507;-71
2022/04/02 11:00:13;;;;;;;10.40;6.90;;;;;;;-1.17;100.00;95105.25;4935603;29;24449;-72
2022/04/02 11:02:43;;;;;;;6.53;5.90;;;;;;;-1.40;100.00;95105.91;4935783;29;24434;-72
2022/04/02 11:05:10;;;;;;;7.30;6.43;;;;;;;-1.28;100.00;95100.47;4936359;29;24420;-72
2022/04/02 11:07:40;;;;;;;6.65;6.00;;;;;;;-1.27;100.00;95102.13;4935755;29;24434;-72
2022/04/02 11:10:08;;;;;;;14.35;7.05;;;;;;;-1.24;100.00;95109.66;4935904;29;24475;-72
2022/04/02 11:12:38;;;;;;;7.03;6.43;;;;;;;-1.02;100.00;95115.00;4935900;29;24968;-72
2022/04/02 11:15:10;;;;;;;6.80;6.20;;;;;;;-1.36;100.00;95109.19;4935661;29;24434;-72
2022/04/02 11:17:41;;;;;;;8.02;6.50;;;;;;;-1.24;100.00;95119.00;4935416;29;24438;-72
2022/04/02 11:20:11;;;;;;;7.30;6.47;;;;;;;-1.11;100.00;95124.56;4935467;29;24443;-72
2022/04/02 11:23:19;;;;;;;11.27;6.40;;;;;;;-1.29;100.00;95126.75;4935512;29;24960;-72
2022/04/02 11:25:49;;;;;;;7.72;6.93;;;;;;;-1.12;100.00;95128.00;4935218;29;24434;-72
2022/04/02 11:28:18;;;;;;;7.40;6.72;;;;;;;-1.25;100.00;95125.81;4935472;29;24530;-72
2022/04/02 11:30:46;;;;;;;10.00;7.75;;;;;;;-1.18;100.00;95128.19;4935284;29;24785;-72
2022/04/02 11:33:17;;;;;;;10.70;7.95;;;;;;;-1.18;100.00;95135.81;4935539;29;24434;-72
2022/04/02 11:35:49;;;;;;;7.90;6.82;;;;;;;-1.01;100.00;95139.53;4935236;29;24781;-72
2022/04/02 11:38:29;;;;;;;7.25;6.53;;;;;;;-1.13;100.00;95141.59;4935392;29;24462;-72
2022/04/02 11:41:00;;;;;;;7.82;6.90;;;;;;;-0.87;100.00;95143.41;4935190;29;24845;-72
2022/04/02 11:43:34;;;;;;;6.63;5.90;;;;;;;-0.92;100.00;95146.09;4935459;29;24437;-72
2022/04/02 11:46:05;;;;;;;9.65;6.55;;;;;;;-0.88;100.00;95150.19;4935150;29;24474;-72
2022/04/02 11:48:35;;;;;;;7.10;6.00;;;;;;;-1.06;100.00;95145.63;4934944;29;24419;-72